sensor_id;sensor_type;location;lat;lon;timestamp;pressure;altitude;pressure_sealevel;temperature;humidity
19114;BME280;9689;51.052;13.772;2023-03-01T00:00:08;101780.84;;;-2.30;81.96
19114;BME280;9689;51.052;13.772;2023-03-01T00:05:12;101776.41;;;-2.34;81.82
19114;BME280;9689;51.052;13.772;2023-03-01T00:10:14;101783.69;;;-2.40;81.89
19114;BME280;9689;51.052;13.772;2023-03-01T00:15:15;101775.88;;;-2.43;82.29
19114;BME280;9689;51.052;13.772;2023-03-01T00:20:16;101765.41;;;-2.47;81.89
19114;BME280;9689;51.052;13.772;2023-03-01T00:25:18;101783.19;;;-2.49;82.26
19114;BME280;9689;51.052;13.772;2023-03-01T00:30:19;101770.78;;;-2.58;81.98
19114;BME280;9689;51.052;13.772;2023-03-01T00:35:20;101779.25;;;-2.59;82.42
19114;BME280;9689;51.052;13.772;2023-03-01T00:40:23;101770.50;;;-2.62;82.59
19114;BME280;9689;51.052;13.772;2023-03-01T00:45:24;101767.44;;;-2.71;82.47
19114;BME280;9689;51.052;13.772;2023-03-01T00:50:25;101755.41;;;-2.74;82.67
19114;BME280;9689;51.052;13.772;2023-03-01T00:55:29;101751.09;;;-2.75;82.67
19114;BME280;9689;51.052;13.772;2023-03-01T01:00:30;101754.16;;;-2.80;82.83
19114;BME280;9689;51.052;13.772;2023-03-01T01:05:30;101760.78;;;-2.84;83.18
19114;BME280;9689;51.052;13.772;2023-03-01T01:10:34;101753.91;;;-2.85;83.08
19114;BME280;9689;51.052;13.772;2023-03-01T01:15:35;101758.81;;;-2.88;83.15
19114;BME280;9689;51.052;13.772;2023-03-01T01:20:36;101755.22;;;-2.92;83.31
19114;BME280;9689;51.052;13.772;2023-03-01T01:25:39;101755.22;;;-2.92;83.24
19114;BME280;9689;51.052;13.772;2023-03-01T01:30:39;101750.84;;;-2.94;83.25
19114;BME280;9689;51.052;13.772;2023-03-01T01:35:40;101737.72;;;-3.00;83.50
19114;BME280;9689;51.052;13.772;2023-03-01T01:40:45;101741.00;;;-3.03;83.39
19114;BME280;9689;51.052;13.772;2023-03-01T01:45:47;101731.31;;;-3.08;83.53
19114;BME280;9689;51.052;13.772;2023-03-01T01:50:54;101741.50;;;-3.08;83.38
19114;BME280;9689;51.052;13.772;2023-03-01T01:55:58;101736.91;;;-3.14;83.31
19114;BME280;9689;51.052;13.772;2023-03-01T02:01:01;101738.34;;;-3.19;83.43
19114;BME280;9689;51.052;13.772;2023-03-01T02:06:04;101729.81;;;-3.20;83.48
19114;BME280;9689;51.052;13.772;2023-03-01T02:11:08;101728.94;;;-3.20;83.60
19114;BME280;9689;51.052;13.772;2023-03-01T02:16:12;101725.16;;;-3.27;83.70
19114;BME280;9689;51.052;13.772;2023-03-01T02:21:25;101721.44;;;-3.32;83.84
19114;BME280;9689;51.052;13.772;2023-03-01T02:26:35;101698.91;;;-3.39;83.86
19114;BME280;9689;51.052;13.772;2023-03-01T02:31:41;101698.66;;;-3.44;83.72
19114;BME280;9689;51.052;13.772;2023-03-01T02:36:47;101700.50;;;-3.41;83.95
19114;BME280;9689;51.052;13.772;2023-03-01T02:41:51;101708.88;;;-3.44;83.46
19114;BME280;9689;51.052;13.772;2023-03-01T02:46:56;101694.97;;;-3.49;83.61
19114;BME280;9689;51.052;13.772;2023-03-01T02:52:10;101695.28;;;-3.57;83.59
19114;BME280;9689;51.052;13.772;2023-03-01T02:57:15;101698.88;;;-3.68;83.92
19114;BME280;9689;51.052;13.772;2023-03-01T03:02:22;101693.97;;;-3.65;83.85
19114;BME280;9689;51.052;13.772;2023-03-01T03:07:45;101691.88;;;-3.73;83.95
19114;BME280;9689;51.052;13.772;2023-03-01T03:12:49;101688.53;;;-3.72;83.81
19114;BME280;9689;51.052;13.772;2023-03-01T03:17:52;101682.88;;;-3.81;84.09
19114;BME280;9689;51.052;13.772;2023-03-01T03:22:54;101687.28;;;-3.78;84.07
19114;BME280;9689;51.052;13.772;2023-03-01T03:27:56;101679.47;;;-3.81;83.55
19114;BME280;9689;51.052;13.772;2023-03-01T03:32:59;101673.50;;;-3.82;83.79
19114;BME280;9689;51.052;13.772;2023-03-01T03:38:01;101676.53;;;-3.87;83.83
19114;BME280;9689;51.052;13.772;2023-03-01T03:43:07;101669.41;;;-3.93;83.64
19114;BME280;9689;51.052;13.772;2023-03-01T03:48:09;101670.09;;;-3.95;83.95
19114;BME280;9689;51.052;13.772;2023-03-01T03:53:11;101660.81;;;-3.95;83.78
19114;BME280;9689;51.052;13.772;2023-03-01T03:58:12;101665.81;;;-3.96;83.91
19114;BME280;9689;51.052;13.772;2023-03-01T04:03:16;101669.72;;;-4.02;84.24
19114;BME280;9689;51.052;13.772;2023-03-01T04:08:19;101688.06;;;-4.07;84.46
19114;BME280;9689;51.052;13.772;2023-03-01T04:13:22;101684.81;;;-4.05;84.74
19114;BME280;9689;51.052;13.772;2023-03-01T04:18:25;101683.38;;;-4.14;84.94
19114;BME280;9689;51.052;13.772;2023-03-01T04:23:26;101676.03;;;-4.10;84.72
19114;BME280;9689;51.052;13.772;2023-03-01T04:28:29;101673.59;;;-4.08;84.70
19114;BME280;9689;51.052;13.772;2023-03-01T04:33:31;101675.75;;;-4.14;84.83
19114;BME280;9689;51.052;13.772;2023-03-01T04:38:32;101675.75;;;-4.14;84.51
19114;BME280;9689;51.052;13.772;2023-03-01T04:43:33;101672.66;;;-4.23;84.56
19114;BME280;9689;51.052;13.772;2023-03-01T04:48:36;101674.09;;;-4.27;84.74
19114;BME280;9689;51.052;13.772;2023-03-01T04:53:37;101671.38;;;-4.30;84.58
19114;BME280;9689;51.052;13.772;2023-03-01T04:58:38;101685.78;;;-4.31;84.35
19114;BME280;9689;51.052;13.772;2023-03-01T05:03:40;101678.63;;;-4.36;84.78
19114;BME280;9689;51.052;13.772;2023-03-01T05:08:42;101676.00;;;-4.38;84.97
19114;BME280;9689;51.052;13.772;2023-03-01T05:13:43;101681.09;;;-4.38;84.56
19114;BME280;9689;51.052;13.772;2023-03-01T05:18:45;101667.31;;;-4.41;84.17
19114;BME280;9689;51.052;13.772;2023-03-01T05:23:45;101671.91;;;-4.49;83.91
19114;BME280;9689;51.052;13.772;2023-03-01T05:28:46;101672.31;;;-4.56;83.46
19114;BME280;9689;51.052;13.772;2023-03-01T05:33:48;101663.81;;;-4.57;83.67
19114;BME280;9689;51.052;13.772;2023-03-01T05:38:49;101656.66;;;-4.62;83.73
19114;BME280;9689;51.052;13.772;2023-03-01T05:43:50;101655.88;;;-4.61;83.76
19114;BME280;9689;51.052;13.772;2023-03-01T05:48:52;101653.44;;;-4.60;83.44
19114;BME280;9689;51.052;13.772;2023-03-01T05:53:53;101657.53;;;-4.62;83.38
19114;BME280;9689;51.052;13.772;2023-03-01T05:58:53;101662.44;;;-4.65;83.20
19114;BME280;9689;51.052;13.772;2023-03-01T06:03:55;101666.16;;;-4.60;83.52
19114;BME280;9689;51.052;13.772;2023-03-01T06:08:56;101673.28;;;-4.54;83.13
19114;BME280;9689;51.052;13.772;2023-03-01T06:13:57;101672.50;;;-4.53;82.96
19114;BME280;9689;51.052;13.772;2023-03-01T06:18:59;101671.91;;;-4.49;82.92
19114;BME280;9689;51.052;13.772;2023-03-01T06:23:59;101674.47;;;-4.49;82.91
19114;BME280;9689;51.052;13.772;2023-03-01T06:29:01;101677.69;;;-4.51;82.48
19114;BME280;9689;51.052;13.772;2023-03-01T06:34:03;101681.41;;;-4.46;82.26
19114;BME280;9689;51.052;13.772;2023-03-01T06:39:03;101685.00;;;-4.30;81.54
19114;BME280;9689;51.052;13.772;2023-03-01T06:44:07;101691.53;;;-4.20;81.40
19114;BME280;9689;51.052;13.772;2023-03-01T06:49:09;101686.44;;;-4.20;80.92
19114;BME280;9689;51.052;13.772;2023-03-01T06:54:10;101690.06;;;-4.16;81.02
19114;BME280;9689;51.052;13.772;2023-03-01T06:59:11;101692.28;;;-4.08;80.63
19114;BME280;9689;51.052;13.772;2023-03-01T07:04:13;101683.34;;;-4.01;80.76
19114;BME280;9689;51.052;13.772;2023-03-01T07:09:14;101685.38;;;-3.95;80.45
19114;BME280;9689;51.052;13.772;2023-03-01T07:14:19;101678.03;;;-3.91;80.13
19114;BME280;9689;51.052;13.772;2023-03-01T07:19:22;101680.09;;;-3.71;79.68
19114;BME280;9689;51.052;13.772;2023-03-01T07:24:23;101669.22;;;-3.53;79.08
19114;BME280;9689;51.052;13.772;2023-03-01T07:29:24;101665.19;;;-3.50;78.69
19114;BME280;9689;51.052;13.772;2023-03-01T07:34:26;101666.59;;;-3.40;78.18
19114;BME280;9689;51.052;13.772;2023-03-01T07:39:27;101657.81;;;-3.30;78.53
19114;BME280;9689;51.052;13.772;2023-03-01T07:44:27;101656.75;;;-3.19;78.02
19114;BME280;9689;51.052;13.772;2023-03-01T07:49:30;101659.56;;;-3.00;77.62
19114;BME280;9689;51.052;13.772;2023-03-01T07:54:30;101656.38;;;-2.96;77.10
19114;BME280;9689;51.052;13.772;2023-03-01T07:59:31;101640.44;;;-2.77;76.83
19114;BME280;9689;51.052;13.772;2023-03-01T08:04:34;101637.00;;;-2.77;76.98
19114;BME280;9689;51.052;13.772;2023-03-01T08:09:35;101625.19;;;-2.61;76.17
19114;BME280;9689;51.052;13.772;2023-03-01T08:14:37;101629.34;;;-2.46;75.93
19114;BME280;9689;51.052;13.772;2023-03-01T08:19:39;101631.25;;;-2.26;75.17
19114;BME280;9689;51.052;13.772;2023-03-01T08:24:39;101627.44;;;-2.18;74.30
19114;BME280;9689;51.052;13.772;2023-03-01T08:29:41;101623.06;;;-2.20;74.98
19114;BME280;9689;51.052;13.772;2023-03-01T08:34:46;101620.25;;;-1.92;75.88
19114;BME280;9689;51.052;13.772;2023-03-01T08:39:46;101614.03;;;-1.81;75.23
19114;BME280;9689;51.052;13.772;2023-03-01T08:44:47;101607.00;;;-1.85;73.76
19114;BME280;9689;51.052;13.772;2023-03-01T08:49:50;101616.72;;;-1.62;73.37
19114;BME280;9689;51.052;13.772;2023-03-01T08:54:51;101613.25;;;-1.46;73.02
19114;BME280;9689;51.052;13.772;2023-03-01T08:59:52;101601.81;;;-1.19;71.70
19114;BME280;9689;51.052;13.772;2023-03-01T09:04:56;101605.00;;;-1.05;70.67
19114;BME280;9689;51.052;13.772;2023-03-01T09:09:57;101598.13;;;-0.88;70.35
19114;BME280;9689;51.052;13.772;2023-03-01T09:14:58;101590.22;;;-0.75;69.90
19114;BME280;9689;51.052;13.772;2023-03-01T09:20:00;101584.19;;;-0.77;70.04
19114;BME280;9689;51.052;13.772;2023-03-01T09:25:01;101566.09;;;-0.43;69.22
19114;BME280;9689;51.052;13.772;2023-03-01T09:30:02;101555.50;;;-0.31;70.03
19114;BME280;9689;51.052;13.772;2023-03-01T09:35:06;101551.84;;;0.03;68.63
19114;BME280;9689;51.052;13.772;2023-03-01T09:40:12;101548.63;;;0.27;68.17
19114;BME280;9689;51.052;13.772;2023-03-01T09:45:23;101552.41;;;0.36;67.50
19114;BME280;9689;51.052;13.772;2023-03-01T09:50:32;101559.38;;;0.61;67.04
19114;BME280;9689;51.052;13.772;2023-03-01T09:55:38;101555.06;;;0.80;66.38
19114;BME280;9689;51.052;13.772;2023-03-01T10:00:43;101551.31;;;0.95;65.09
19114;BME280;9689;51.052;13.772;2023-03-01T10:05:53;101537.19;;;1.04;65.22
19114;BME280;9689;51.052;13.772;2023-03-01T10:10:57;101546.50;;;1.25;65.17
19114;BME280;9689;51.052;13.772;2023-03-01T10:16:01;101544.91;;;1.51;64.01
19114;BME280;9689;51.052;13.772;2023-03-01T10:21:14;101549.59;;;1.62;63.71
19114;BME280;9689;51.052;13.772;2023-03-01T10:26:26;101538.22;;;1.80;62.93
19114;BME280;9689;51.052;13.772;2023-03-01T10:31:38;101528.59;;;1.98;61.51
19114;BME280;9689;51.052;13.772;2023-03-01T10:36:42;101520.78;;;2.20;61.02
19114;BME280;9689;51.052;13.772;2023-03-01T10:42:02;101518.81;;;2.39;60.21
19114;BME280;9689;51.052;13.772;2023-03-01T10:47:03;101513.16;;;2.49;59.86
19114;BME280;9689;51.052;13.772;2023-03-01T10:52:18;101505.38;;;2.74;59.24
19114;BME280;9689;51.052;13.772;2023-03-01T10:57:32;101493.06;;;2.93;58.07
19114;BME280;9689;51.052;13.772;2023-03-01T11:02:33;101488.47;;;3.11;56.43
19114;BME280;9689;51.052;13.772;2023-03-01T11:07:47;101481.22;;;3.28;55.17
19114;BME280;9689;51.052;13.772;2023-03-01T11:12:47;101475.81;;;3.49;54.86
19114;BME280;9689;51.052;13.772;2023-03-01T11:17:48;101461.81;;;3.72;54.10
19114;BME280;9689;51.052;13.772;2023-03-01T11:23:02;101459.69;;;3.89;52.88
19114;BME280;9689;51.052;13.772;2023-03-01T11:28:07;101465.09;;;4.00;52.26
19114;BME280;9689;51.052;13.772;2023-03-01T11:33:17;101464.22;;;3.99;50.79
19114;BME280;9689;51.052;13.772;2023-03-01T11:38:22;101452.22;;;4.00;51.15
19114;BME280;9689;51.052;13.772;2023-03-01T11:43:30;101453.25;;;4.06;50.46
19114;BME280;9689;51.052;13.772;2023-03-01T11:48:44;101457.03;;;4.20;49.50
19114;BME280;9689;51.052;13.772;2023-03-01T11:54:04;101455.72;;;4.36;47.18
19114;BME280;9689;51.052;13.772;2023-03-01T11:59:19;101446.16;;;4.34;46.11
19114;BME280;9689;51.052;13.772;2023-03-01T12:04:36;101447.59;;;4.57;45.03
19114;BME280;9689;51.052;13.772;2023-03-01T12:09:58;101437.44;;;4.65;45.34
19114;BME280;9689;51.052;13.772;2023-03-01T12:15:37;101438.34;;;4.67;45.38
19114;BME280;9689;51.052;13.772;2023-03-01T12:20:48;101426.94;;;4.57;46.01
19114;BME280;9689;51.052;13.772;2023-03-01T12:25:56;101418.16;;;4.50;46.87
19114;BME280;9689;51.052;13.772;2023-03-01T12:31:21;101417.50;;;4.59;47.72
19114;BME280;9689;51.052;13.772;2023-03-01T12:36:51;101414.03;;;4.57;47.30
19114;BME280;9689;51.052;13.772;2023-03-01T12:42:03;101409.66;;;4.53;48.91
19114;BME280;9689;51.052;13.772;2023-03-01T12:47:28;101396.13;;;4.65;48.36
19114;BME280;9689;51.052;13.772;2023-03-01T12:52:37;101397.13;;;4.71;49.37
19114;BME280;9689;51.052;13.772;2023-03-01T12:57:43;101395.28;;;4.66;49.69
19114;BME280;9689;51.052;13.772;2023-03-01T13:02:51;101381.63;;;4.70;49.33
19114;BME280;9689;51.052;13.772;2023-03-01T13:07:56;101379.34;;;4.85;48.44
19114;BME280;9689;51.052;13.772;2023-03-01T13:13:13;101375.44;;;4.63;48.72
19114;BME280;9689;51.052;13.772;2023-03-01T13:18:31;101374.84;;;4.76;46.64
19114;BME280;9689;51.052;13.772;2023-03-01T13:23:34;101360.91;;;4.68;45.63
19114;BME280;9689;51.052;13.772;2023-03-01T13:28:51;101367.44;;;4.93;46.89
19114;BME280;9689;51.052;13.772;2023-03-01T13:33:52;101361.91;;;5.17;45.32
19114;BME280;9689;51.052;13.772;2023-03-01T13:38:55;101366.50;;;5.32;45.34
19114;BME280;9689;51.052;13.772;2023-03-01T13:43:59;101346.66;;;5.31;45.08
19114;BME280;9689;51.052;13.772;2023-03-01T13:49:00;101351.69;;;5.23;45.62
19114;BME280;9689;51.052;13.772;2023-03-01T13:54:01;101357.75;;;5.25;45.97
19114;BME280;9689;51.052;13.772;2023-03-01T13:59:05;101350.72;;;5.20;46.24
19114;BME280;9689;51.052;13.772;2023-03-01T14:04:20;101344.97;;;5.33;46.94
19114;BME280;9689;51.052;13.772;2023-03-01T14:09:23;101343.44;;;5.46;45.61
19114;BME280;9689;51.052;13.772;2023-03-01T14:14:36;101339.09;;;5.43;45.25
19114;BME280;9689;51.052;13.772;2023-03-01T14:19:40;101333.25;;;5.55;44.97
19114;BME280;9689;51.052;13.772;2023-03-01T14:24:46;101331.66;;;5.61;45.67
19114;BME280;9689;51.052;13.772;2023-03-01T14:29:58;101320.50;;;5.64;43.98
19114;BME280;9689;51.052;13.772;2023-03-01T14:34:59;101321.16;;;5.51;44.25
19114;BME280;9689;51.052;13.772;2023-03-01T14:40:03;101322.88;;;5.50;45.22
19114;BME280;9689;51.052;13.772;2023-03-01T14:45:09;101305.63;;;5.51;45.76
19114;BME280;9689;51.052;13.772;2023-03-01T14:50:21;101300.44;;;5.48;46.24
19114;BME280;9689;51.052;13.772;2023-03-01T14:55:26;101290.25;;;5.58;45.48
19114;BME280;9689;51.052;13.772;2023-03-01T15:00:30;101286.38;;;5.33;45.58
19114;BME280;9689;51.052;13.772;2023-03-01T15:05:32;101294.00;;;5.26;46.59
19114;BME280;9689;51.052;13.772;2023-03-01T15:10:36;101292.25;;;5.23;46.04
19114;BME280;9689;51.052;13.772;2023-03-01T15:15:41;101294.03;;;5.27;46.46
19114;BME280;9689;51.052;13.772;2023-03-01T15:20:43;101297.50;;;5.29;47.32
19114;BME280;9689;51.052;13.772;2023-03-01T15:25:44;101289.72;;;5.28;47.29
19114;BME280;9689;51.052;13.772;2023-03-01T15:30:52;101289.59;;;5.20;46.71
19114;BME280;9689;51.052;13.772;2023-03-01T15:35:57;101280.97;;;5.20;48.03
19114;BME280;9689;51.052;13.772;2023-03-01T15:40:59;101285.22;;;5.16;46.87
19114;BME280;9689;51.052;13.772;2023-03-01T15:46:02;101285.06;;;5.07;47.15
19114;BME280;9689;51.052;13.772;2023-03-01T15:51:03;101278.78;;;4.94;48.04
19114;BME280;9689;51.052;13.772;2023-03-01T15:56:04;101275.19;;;4.86;48.08
19114;BME280;9689;51.052;13.772;2023-03-01T16:01:11;101263.06;;;4.82;49.12
19114;BME280;9689;51.052;13.772;2023-03-01T16:06:13;101256.88;;;4.72;49.09
19114;BME280;9689;51.052;13.772;2023-03-01T16:11:16;101261.66;;;4.52;49.74
19114;BME280;9689;51.052;13.772;2023-03-01T16:16:18;101266.84;;;4.54;49.62
19114;BME280;9689;51.052;13.772;2023-03-01T16:21:22;101274.84;;;4.25;50.64
19114;BME280;9689;51.052;13.772;2023-03-01T16:26:23;101283.91;;;4.08;51.21
19114;BME280;9689;51.052;13.772;2023-03-01T16:31:25;101293.72;;;3.85;51.87
19114;BME280;9689;51.052;13.772;2023-03-01T16:36:27;101293.22;;;3.64;52.35
19114;BME280;9689;51.052;13.772;2023-03-01T16:41:28;101298.09;;;3.53;52.80
19114;BME280;9689;51.052;13.772;2023-03-01T16:46:31;101290.06;;;3.39;53.60
19114;BME280;9689;51.052;13.772;2023-03-01T16:51:32;101291.28;;;3.21;54.28
19114;BME280;9689;51.052;13.772;2023-03-01T16:56:34;101289.88;;;3.00;55.03
19114;BME280;9689;51.052;13.772;2023-03-01T17:01:38;101286.13;;;2.88;55.78
19114;BME280;9689;51.052;13.772;2023-03-01T17:06:40;101290.19;;;2.79;56.58
19114;BME280;9689;51.052;13.772;2023-03-01T17:11:41;101283.78;;;2.65;56.89
19114;BME280;9689;51.052;13.772;2023-03-01T17:16:43;101284.84;;;2.72;57.05
19114;BME280;9689;51.052;13.772;2023-03-01T17:21:44;101293.31;;;2.69;57.49
19114;BME280;9689;51.052;13.772;2023-03-01T17:26:45;101299.91;;;2.60;58.33
19114;BME280;9689;51.052;13.772;2023-03-01T17:31:47;101303.84;;;2.47;58.94
19114;BME280;9689;51.052;13.772;2023-03-01T17:36:48;101312.78;;;2.30;59.80
19114;BME280;9689;51.052;13.772;2023-03-01T17:41:50;101322.63;;;2.16;60.62
19114;BME280;9689;51.052;13.772;2023-03-01T17:46:52;101318.97;;;2.08;61.11
19114;BME280;9689;51.052;13.772;2023-03-01T17:51:53;101319.41;;;1.94;62.12
19114;BME280;9689;51.052;13.772;2023-03-01T17:56:54;101326.16;;;1.91;63.20
19114;BME280;9689;51.052;13.772;2023-03-01T18:01:58;101324.81;;;1.75;63.70
19114;BME280;9689;51.052;13.772;2023-03-01T18:07:00;101323.81;;;1.72;64.75
19114;BME280;9689;51.052;13.772;2023-03-01T18:12:01;101325.22;;;1.62;64.29
19114;BME280;9689;51.052;13.772;2023-03-01T18:17:03;101331.38;;;1.40;64.49
19114;BME280;9689;51.052;13.772;2023-03-01T18:22:10;101326.88;;;1.34;64.75
19114;BME280;9689;51.052;13.772;2023-03-01T18:27:11;101323.53;;;1.11;64.74
19114;BME280;9689;51.052;13.772;2023-03-01T18:32:13;101315.13;;;1.16;65.25
19114;BME280;9689;51.052;13.772;2023-03-01T18:37:14;101310.13;;;1.20;65.11
19114;BME280;9689;51.052;13.772;2023-03-01T18:42:14;101305.38;;;1.05;65.29
19114;BME280;9689;51.052;13.772;2023-03-01T18:47:16;101313.84;;;0.79;67.34
19114;BME280;9689;51.052;13.772;2023-03-01T18:52:17;101323.34;;;0.59;66.92
19114;BME280;9689;51.052;13.772;2023-03-01T18:57:18;101326.34;;;0.47;67.39
19114;BME280;9689;51.052;13.772;2023-03-01T19:02:20;101321.66;;;0.60;67.70
19114;BME280;9689;51.052;13.772;2023-03-01T19:07:21;101316.81;;;0.67;67.11
19114;BME280;9689;51.052;13.772;2023-03-01T19:12:22;101317.06;;;0.51;67.85
19114;BME280;9689;51.052;13.772;2023-03-01T19:17:24;101319.25;;;0.40;69.29
19114;BME280;9689;51.052;13.772;2023-03-01T19:22:29;101323.16;;;0.31;69.51
19114;BME280;9689;51.052;13.772;2023-03-01T19:27:29;101317.59;;;0.18;69.69
19114;BME280;9689;51.052;13.772;2023-03-01T19:32:32;101329.03;;;0.06;70.53
19114;BME280;9689;51.052;13.772;2023-03-01T19:37:32;101323.28;;;0.11;70.07
19114;BME280;9689;51.052;13.772;2023-03-01T19:42:33;101315.91;;;-0.02;70.41
19114;BME280;9689;51.052;13.772;2023-03-01T19:47:35;101313.34;;;-0.02;70.13
19114;BME280;9689;51.052;13.772;2023-03-01T19:52:36;101308.94;;;-0.06;70.24
19114;BME280;9689;51.052;13.772;2023-03-01T19:57:37;101312.78;;;0.05;71.41
19114;BME280;9689;51.052;13.772;2023-03-01T20:02:39;101317.75;;;0.45;69.55
19114;BME280;9689;51.052;13.772;2023-03-01T20:07:40;101328.28;;;0.53;69.25
19114;BME280;9689;51.052;13.772;2023-03-01T20:12:43;101324.94;;;0.55;68.81
19114;BME280;9689;51.052;13.772;2023-03-01T20:17:45;101332.78;;;0.36;68.59
19114;BME280;9689;51.052;13.772;2023-03-01T20:22:46;101324.91;;;0.09;68.88
19114;BME280;9689;51.052;13.772;2023-03-01T20:27:47;101321.28;;;0.04;68.92
19114;BME280;9689;51.052;13.772;2023-03-01T20:32:51;101314.63;;;-0.13;69.08
19114;BME280;9689;51.052;13.772;2023-03-01T20:37:52;101310.28;;;-0.16;69.43
19114;BME280;9689;51.052;13.772;2023-03-01T20:42:52;101312.16;;;-0.33;70.94
19114;BME280;9689;51.052;13.772;2023-03-01T20:47:55;101307.91;;;-0.32;70.79
19114;BME280;9689;51.052;13.772;2023-03-01T20:52:55;101306.78;;;-0.39;70.95
19114;BME280;9689;51.052;13.772;2023-03-01T20:57:56;101302.97;;;-0.48;71.46
19114;BME280;9689;51.052;13.772;2023-03-01T21:02:58;101303.03;;;-0.47;71.73
19114;BME280;9689;51.052;13.772;2023-03-01T21:07:59;101312.97;;;-0.54;72.75
19114;BME280;9689;51.052;13.772;2023-03-01T21:13:01;101310.56;;;-0.51;73.25
19114;BME280;9689;51.052;13.772;2023-03-01T21:18:03;101298.63;;;-0.51;73.35
19114;BME280;9689;51.052;13.772;2023-03-01T21:23:04;101302.66;;;-0.56;74.12
19114;BME280;9689;51.052;13.772;2023-03-01T21:28:05;101297.66;;;-0.74;75.10
19114;BME280;9689;51.052;13.772;2023-03-01T21:33:07;101294.19;;;-0.76;75.79
19114;BME280;9689;51.052;13.772;2023-03-01T21:38:07;101294.22;;;-0.74;75.67
19114;BME280;9689;51.052;13.772;2023-03-01T21:43:08;101293.84;;;-0.83;76.19
19114;BME280;9689;51.052;13.772;2023-03-01T21:48:10;101299.09;;;-0.80;76.76
19114;BME280;9689;51.052;13.772;2023-03-01T21:53:11;101300.59;;;-0.86;76.75
19114;BME280;9689;51.052;13.772;2023-03-01T21:58:12;101291.03;;;-0.90;76.73
19114;BME280;9689;51.052;13.772;2023-03-01T22:03:15;101288.53;;;-0.88;77.52
19114;BME280;9689;51.052;13.772;2023-03-01T22:08:16;101271.94;;;-0.98;77.80
19114;BME280;9689;51.052;13.772;2023-03-01T22:13:17;101264.06;;;-1.02;77.83
19114;BME280;9689;51.052;13.772;2023-03-01T22:18:19;101274.09;;;-1.07;78.08
19114;BME280;9689;51.052;13.772;2023-03-01T22:23:20;101266.78;;;-1.19;78.26
19114;BME280;9689;51.052;13.772;2023-03-01T22:28:21;101266.63;;;-1.22;79.12
19114;BME280;9689;51.052;13.772;2023-03-01T22:33:23;101277.81;;;-1.20;78.57
19114;BME280;9689;51.052;13.772;2023-03-01T22:38:24;101278.31;;;-1.28;79.10
19114;BME280;9689;51.052;13.772;2023-03-01T22:43:25;101273.84;;;-1.32;79.57
19114;BME280;9689;51.052;13.772;2023-03-01T22:48:28;101272.25;;;-1.30;79.62
19114;BME280;9689;51.052;13.772;2023-03-01T22:53:28;101270.97;;;-1.40;80.14
19114;BME280;9689;51.052;13.772;2023-03-01T22:58:29;101266.19;;;-1.52;80.18
19114;BME280;9689;51.052;13.772;2023-03-01T23:03:31;101270.72;;;-1.46;80.40
19114;BME280;9689;51.052;13.772;2023-03-01T23:08:32;101270.44;;;-1.52;80.49
19114;BME280;9689;51.052;13.772;2023-03-01T23:13:33;101279.84;;;-1.51;80.51
19114;BME280;9689;51.052;13.772;2023-03-01T23:18:36;101283.91;;;-1.56;80.51
19114;BME280;9689;51.052;13.772;2023-03-01T23:23:36;101287.38;;;-1.54;80.30
19114;BME280;9689;51.052;13.772;2023-03-01T23:28:37;101284.59;;;-1.59;80.69
19114;BME280;9689;51.052;13.772;2023-03-01T23:33:41;101286.22;;;-1.61;80.76
19114;BME280;9689;51.052;13.772;2023-03-01T23:38:44;101273.97;;;-1.68;81.03
19114;BME280;9689;51.052;13.772;2023-03-01T23:43:46;101272.91;;;-1.73;81.24
19114;BME280;9689;51.052;13.772;2023-03-01T23:48:49;101278.09;;;-1.72;80.91
19114;BME280;9689;51.052;13.772;2023-03-01T23:53:53;101282.16;;;-1.75;80.72
19114;BME280;9689;51.052;13.772;2023-03-01T23:58:55;101277.47;;;-1.85;80.97
